Tampa, Florida
Traffic Map
Current Weather Conditions
Tampa, Florida
Few Clouds
Few Clouds
29°
Feels Like: 33°
Wind Chill: 29° Ceiling: Unl
Heat Index: 33° Visibility: 10mi
Dew Point: 22° Wind: 8mph
Humidity: 65% Direction: 270° (W)
Pressure: 29.91in Gusts: 0mph
Raw Report DataKTPA 012153Z 27007KT 10SM FEW028TCU FEW060 29/22 A2991 RMK AO2 SLP127 TCU N-E T02940222
Traffic Incident Summary
Active as of:
Severity:
Category:
InformationThere was an issue retrieving the traffic information for this location. Please try a different location or try again shortly.
Advertisements
Track Severe Weather on mobile